Scotch Plains, New Jersey
Current Conditions -  °F | °C
As of 8:35 AM on Sunday 23 Nov 2014 (Local Time) from KLDJ Reporting Station
Overcast Overcast  
Wind Chill: 45°   Ceiling: 12000
Heat Index: 47°   Visibility: 10mi
Dew Point: 27°   Wind: 5mph
Humidity: 47%   Direction: 270°W
Pressure: 30.24"   Gusts: NA
Location:  40.65°N, 74.4°W
Report Text: KLDJ 231335Z AUTO 27004KT 10SM SCT095 OVC120 08/M03 A3024 RMK AO2 T00821026
Loading
Personal Weather Stations






























Interactive Weather Map New forecast layout! Learn more

10-Day Weather Forecast

Advertisements
Track Severe Weather on mobile